Time;durP1;ratioP1;P1;durP2;ratioP2;P2;SDS_P1;SDS_P2;PMS_P1;PMS_P2;Temp;Humidity;BMP_temperature;BMP_pressure;BME280_temperature;BME280_humidity;BME280_pressure;Samples;Min_cycle;Max_cycle;Signal;HPM_P1;HPM_P2
2022/12/28 00:01:11;;;;;;;3.70;1.60;;;;;;;13.98;52.35;101357.19;6131474;23;20025;-76
2022/12/28 00:03:37;;;;;;;3.78;1.70;;;;;;;13.98;52.26;101357.19;6157832;23;20329;-76
2022/12/28 00:06:03;;;;;;;2.90;1.60;;;;;;;13.98;52.19;101352.88;6131788;23;20005;-77
2022/12/28 00:08:28;;;;;;;2.53;1.63;;;;;;;13.98;52.19;101349.44;6157788;23;20009;-76
2022/12/28 00:11:06;;;;;;;3.55;1.88;;;;;;;13.98;52.21;101346.84;6131578;23;20009;-76
2022/12/28 00:13:33;;;;;;;3.60;1.60;;;;;;;13.98;52.13;101331.31;6157677;23;20060;-76
2022/12/28 00:16:07;;;;;;;2.72;1.45;;;;;;;13.98;52.13;101339.94;6107210;23;20013;-76
2022/12/28 00:18:34;;;;;;;2.88;1.40;;;;;;;13.98;52.10;101336.50;6155934;23;20013;-78
2022/12/28 00:21:00;;;;;;;2.55;1.60;;;;;;;13.97;52.24;101330.41;6107406;23;20441;-76
2022/12/28 00:23:25;;;;;;;2.33;1.27;;;;;;;13.97;52.37;101325.25;6131267;23;19998;-77
2022/12/28 00:25:51;;;;;;;2.58;1.60;;;;;;;13.97;52.30;101316.63;6157789;23;19997;-76
2022/12/28 00:28:17;;;;;;;2.63;1.80;;;;;;;13.97;52.20;101311.44;6157873;23;20005;-76
2022/12/28 00:30:43;;;;;;;2.08;1.40;;;;;;;13.97;52.13;101309.72;6131528;23;20486;-91
2022/12/28 00:33:11;;;;;;;3.00;1.63;;;;;;;13.97;52.31;101311.44;6134258;23;20031;-90
2022/12/28 00:35:37;;;;;;;2.25;1.40;;;;;;;13.97;52.13;101299.38;6134885;23;20009;-90
2022/12/28 00:38:02;;;;;;;2.60;1.60;;;;;;;13.97;52.22;101289.00;6107450;23;20101;-78
2022/12/28 00:40:27;;;;;;;3.63;1.55;;;;;;;13.96;52.29;101287.28;6107046;23;20016;-76
2022/12/28 00:42:53;;;;;;;2.88;1.70;;;;;;;13.97;52.35;101281.25;6106749;23;20010;-77
2022/12/28 00:45:18;;;;;;;2.25;1.35;;;;;;;13.97;52.16;101276.09;6156146;23;20016;-76
2022/12/28 00:47:43;;;;;;;3.10;1.70;;;;;;;13.97;52.39;101277.81;6106749;23;20027;-76
2022/12/28 00:50:09;;;;;;;2.65;1.33;;;;;;;13.97;52.36;101267.47;6155611;23;20040;-75
2022/12/28 00:52:35;;;;;;;2.80;1.80;;;;;;;13.96;52.20;101260.56;6131221;23;20014;-76
2022/12/28 00:55:00;;;;;;;2.70;1.40;;;;;;;13.96;52.32;101247.63;6106536;23;20009;-76
2022/12/28 00:57:25;;;;;;;2.78;1.60;;;;;;;13.96;52.47;101253.66;6131451;23;20422;-76
2022/12/28 00:59:51;;;;;;;2.30;1.30;;;;;;;13.96;52.44;101243.31;6131129;23;20326;-76
2022/12/28 01:02:16;;;;;;;3.55;1.50;;;;;;;13.96;52.38;101242.44;6155688;23;20005;-76
2022/12/28 01:04:42;;;;;;;2.17;1.42;;;;;;;13.96;52.25;101257.97;6106815;23;20010;-78
2022/12/28 01:07:07;;;;;;;2.65;1.67;;;;;;;13.96;52.31;101229.50;6131308;23;20033;-77
2022/12/28 01:09:32;;;;;;;1.90;1.20;;;;;;;13.96;52.17;101219.16;6106576;23;20010;-76
2022/12/28 01:11:58;;;;;;;2.95;1.45;;;;;;;13.96;52.31;101220.03;6106737;23;20032;-76
2022/12/28 01:14:23;;;;;;;2.75;1.50;;;;;;;13.96;52.36;101209.66;6106767;23;20016;-76
2022/12/28 01:16:49;;;;;;;2.75;1.42;;;;;;;13.94;52.44;101198.44;6106616;23;20013;-76
2022/12/28 01:19:21;;;;;;;2.38;1.45;;;;;;;13.95;52.36;101213.09;6106895;23;20480;-76
2022/12/28 01:21:51;;;;;;;2.83;1.42;;;;;;;13.95;52.16;101205.34;6130977;23;20560;-75
2022/12/28 01:24:17;;;;;;;2.92;1.60;;;;;;;13.94;52.41;101195.84;6130796;23;20401;-75
2022/12/28 01:26:42;;;;;;;2.20;1.35;;;;;;;13.94;52.55;101180.31;6130921;23;20014;-76
2022/12/28 01:29:07;;;;;;;2.40;1.65;;;;;;;13.94;52.54;101189.81;6131961;23;20009;-91
2022/12/28 01:31:33;;;;;;;2.95;1.40;;;;;;;13.96;52.66;101177.75;6133207;23;20037;-92
2022/12/28 01:33:59;;;;;;;2.28;1.40;;;;;;;13.97;52.37;101171.72;6133070;23;20009;-89
2022/12/28 01:36:30;;;;;;;2.67;1.40;;;;;;;13.97;52.39;101171.72;6132705;23;20092;-90
2022/12/28 01:38:58;;;;;;;2.10;1.30;;;;;;;13.96;52.40;101160.50;6158478;23;20029;-91
2022/12/28 01:41:25;;;;;;;3.10;1.30;;;;;;;13.97;52.24;101158.78;6132073;23;20008;-91
2022/12/28 01:43:53;;;;;;;2.22;1.60;;;;;;;13.96;52.61;101159.66;6132695;23;20033;-92
2022/12/28 01:46:40;;;;;;;2.65;1.30;;;;;;;13.96;52.39;101151.88;6156866;23;20012;-91
2022/12/28 01:49:26;;;;;;;1.92;1.50;;;;;;;13.96;52.25;101149.31;6132486;23;20012;-91
2022/12/28 01:52:06;;;;;;;1.77;1.10;;;;;;;13.97;52.44;101143.25;6132831;23;20010;-91
2022/12/28 01:54:52;;;;;;;2.67;1.30;;;;;;;13.95;52.51;101140.66;6157249;23;20096;-92
2022/12/28 01:57:20;;;;;;;2.55;1.30;;;;;;;13.96;52.48;101128.59;6156764;23;20016;-90
2022/12/28 01:59:52;;;;;;;2.03;1.15;;;;;;;13.95;52.36;101125.13;6158391;23;20028;-92
2022/12/28 02:02:19;;;;;;;1.58;1.10;;;;;;;13.94;52.56;101128.56;6156631;23;20076;-91
2022/12/28 02:04:46;;;;;;;2.40;1.30;;;;;;;13.96;52.66;101134.63;6107984;23;20006;-92
2022/12/28 02:07:16;;;;;;;2.30;1.38;;;;;;;13.95;52.53;101135.47;6157724;23;20445;-91
2022/12/28 02:09:42;;;;;;;1.75;1.20;;;;;;;13.95;52.47;101117.34;6132613;23;20048;-89
2022/12/28 02:12:12;;;;;;;2.08;1.20;;;;;;;13.94;52.34;101127.72;6132220;23;20001;-89
2022/12/28 02:14:46;;;;;;;2.22;1.40;;;;;;;13.93;52.44;101116.47;6132674;23;20009;-88
2022/12/28 02:17:12;;;;;;;1.92;1.30;;;;;;;13.94;52.48;101112.19;6107300;23;20343;-75
2022/12/28 02:19:47;;;;;;;2.72;1.40;;;;;;;13.95;52.49;101109.59;6106166;23;20014;-76
2022/12/28 02:22:21;;;;;;;2.00;1.30;;;;;;;13.96;52.62;101118.25;6156230;23;20011;-76
2022/12/28 02:25:05;;;;;;;2.30;1.40;;;;;;;13.94;52.65;101099.25;6155004;23;20043;-75
2022/12/28 02:27:47;;;;;;;2.25;1.10;;;;;;;13.95;52.53;101096.66;6130407;23;20001;-76
2022/12/28 02:30:13;;;;;;;1.50;1.10;;;;;;;13.96;52.53;101097.56;6130544;23;20040;-75
2022/12/28 02:33:05;;;;;;;1.90;1.25;;;;;;;13.94;52.73;101094.94;6154874;23;20307;-76
2022/12/28 02:35:52;;;;;;;2.22;1.40;;;;;;;13.93;52.41;101088.00;6156498;23;20009;-75
2022/12/28 02:38:44;;;;;;;2.20;1.50;;;;;;;13.95;52.73;101095.81;6156164;23;19997;-76
2022/12/28 02:41:13;;;;;;;2.75;1.17;;;;;;;13.93;52.68;101093.19;6130105;23;20001;-76
2022/12/28 02:43:38;;;;;;;2.13;1.20;;;;;;;13.94;52.64;101097.53;6130260;23;20005;-76
2022/12/28 02:52:20;;;;;;;3.03;1.38;;;;;;;13.94;52.24;101066.47;6134295;23;20020;-75
2022/12/28 02:57:57;;;;;;;2.10;1.10;;;;;;;13.96;52.55;101084.63;6158069;23;20060;-90
2022/12/28 03:00:28;;;;;;;1.58;1.10;;;;;;;13.95;52.63;101083.72;6156385;23;20009;-91
2022/12/28 03:03:11;;;;;;;1.63;1.10;;;;;;;13.94;52.68;101084.59;6131685;23;20375;-91
2022/12/28 03:09:08;;;;;;;1.73;1.15;;;;;;;13.94;52.83;101055.28;6157596;23;20088;-91
2022/12/28 03:11:42;;;;;;;2.35;1.20;;;;;;;13.94;52.55;101070.81;6155909;23;19998;-91
2022/12/28 03:14:20;;;;;;;1.80;1.02;;;;;;;13.95;52.91;101065.63;6131249;23;20399;-91
2022/12/28 03:31:07;;;;;;;1.58;1.10;;;;;;;13.93;53.08;101069.91;6156290;23;20012;-76
2022/12/28 03:33:40;;;;;;;1.63;1.00;;;;;;;13.93;52.97;101056.09;6130073;23;20052;-75
2022/12/28 03:36:16;;;;;;;2.30;1.10;;;;;;;13.94;52.80;101057.88;6156048;23;20001;-76
2022/12/28 03:39:03;;;;;;;1.83;1.20;;;;;;;13.93;52.72;101048.34;6129900;23;20099;-76
2022/12/28 03:41:36;;;;;;;2.17;1.20;;;;;;;13.94;52.49;101056.13;6155714;23;20001;-75
2022/12/28 03:44:12;;;;;;;1.63;1.00;;;;;;;13.94;52.83;101050.09;6129851;23;20002;-76
2022/12/28 03:46:47;;;;;;;1.95;1.10;;;;;;;13.94;52.85;101057.88;6129788;23;20084;-76
2022/12/28 03:49:13;;;;;;;2.00;1.00;;;;;;;13.93;52.91;101045.75;6129906;23;20032;-76
2022/12/28 03:51:40;;;;;;;1.45;0.95;;;;;;;13.93;52.78;101044.03;6106036;23;20394;-75
2022/12/28 03:54:06;;;;;;;1.15;0.90;;;;;;;13.94;52.80;101048.38;6100507;23;20041;-75
2022/12/28 03:56:31;;;;;;;2.00;1.00;;;;;;;13.93;52.92;101044.03;6076308;23;20046;-75
2022/12/28 03:58:56;;;;;;;2.10;1.13;;;;;;;13.94;52.82;101038.03;6052392;23;20040;-76
2022/12/28 04:01:22;;;;;;;1.90;1.02;;;;;;;13.93;52.84;101044.03;6076563;23;20037;-76
2022/12/28 04:03:48;;;;;;;1.80;1.10;;;;;;;13.93;52.92;101033.69;6100643;23;20458;-76
2022/12/28 04:06:15;;;;;;;1.48;1.00;;;;;;;13.94;52.76;101032.00;6125193;23;20008;-75
2022/12/28 04:08:42;;;;;;;1.35;0.90;;;;;;;13.94;53.09;101034.56;6100741;23;20320;-77
2022/12/28 04:11:08;;;;;;;1.95;0.90;;;;;;;13.94;52.96;101037.16;6076898;23;20005;-76
2022/12/28 04:13:34;;;;;;;2.03;1.10;;;;;;;13.93;52.77;101023.34;6100749;23;20009;-76
2022/12/28 04:16:03;;;;;;;1.75;0.90;;;;;;;13.93;52.93;101028.50;6076459;23;20454;-77
2022/12/28 04:18:30;;;;;;;1.80;1.10;;;;;;;13.93;53.01;101028.50;6126646;23;20322;-75
2022/12/28 04:20:55;;;;;;;1.88;1.00;;;;;;;13.92;53.06;101006.09;6076557;23;20096;-76
2022/12/28 04:23:21;;;;;;;1.98;1.00;;;;;;;13.94;52.92;101000.94;6100210;23;20089;-75
